Airfield :
LOGIN :

Register | Disclaimer

   EN    FR    IT 

 










Legend :    VFR   Marginal VFR   IFR   Intensive IFR   Very Intensive IFR
Visi :
Ceiling :
>= 8 km
>= 3000ft
5 to 8 km
1000 to 3000 ft
1500m to 5 km
500 to 1000 ft
800 to 1500m
200 to 500 ft
< 800m
< 200 ft
Symbols :   Thunderstorms  Fog  Heavy snow  Heavy precipitations  Wind > 20 kt
SIGMETs :     Misc.  Thunderstorms  Icing  Turbulence  Mountain Waves  Volcanic Ashes






- Airport Elevation : 614 ft
- IATA code : CRL


EBCI - Charleroi

CURRENT METAR :
  • 280450Z 21008KT 9999 -SHRA FEW035 10/08 Q1019 NOSIG

EXPIRED METARs :
  • 280420Z 20009KT 9999 FEW035 09/08 Q1019 NOSIG
  • 280350Z 20007KT 9999 SCT035 09/07 Q1019 NOSIG
  • 280320Z 19005KT 9999 BKN035 09/07 Q1019 NOSIG
  • 280250Z 21007KT CAVOK 09/07 Q1019 NOSIG
  • 280220Z 21004KT CAVOK 08/07 Q1019 NOSIG
  • 280150Z 20005KT CAVOK 08/07 Q1019 NOSIG
  • 280120Z 21005KT CAVOK 08/07 Q1019 NOSIG
  • 280050Z 23005KT CAVOK 08/07 Q1019 NOSIG
  • 280020Z 23007KT CAVOK 08/07 Q1019 NOSIG

TAF COR TAF EBCI
Valid from the 28 at 00:00 until the 29 at 06:00 UTC


272320Z 2800/2906 22008KT 9999 FEW035
BECMG 2813/2815 BKN012
PROB30
TEMPO 2814/2817 4000 RA
TEMPO 2817/2906 2800 RA RADZ BKN005



MET'MAP, your aeronautical weather chart ! - Copyright ORBIFLY December 2007 - Disclaimer

ORBIFLY MET'MAP TEAM :

Programming & Development : Alexandra Zaïnal
Original concept : Baudouin d'Aumeries
Technical & hardware support : Manuel Goepfert
Assistance : Marc-Olivier Méhu




SOURCES & CREDITS :

   NOAA